TimeCDT,TemperatureF,Dew PointF,Humidity,Sea Level PressureIn,VisibilityMPH,Wind Direction,Wind SpeedMPH,Gust SpeedMPH,PrecipitationIn,Events,Conditions,WindDirDegrees,DateUTC
12:55 AM,-12.1,-16.8,80,30.34,10.0,NW,10.4,-,N/A,,Clear,310,2013-03-16 05:55:00
1:55 AM,-13.4,-18.8,77,30.33,10.0,WNW,6.9,-,N/A,,Clear,300,2013-03-16 06:55:00
2:55 AM,-13.4,-18.4,78,30.35,10.0,West,6.9,-,N/A,,Clear,280,2013-03-16 07:55:00
3:55 AM,-15.2,-20.4,77,30.35,10.0,WNW,6.9,-,N/A,,Clear,290,2013-03-16 08:55:00
4:55 AM,-16.4,-21.8,76,30.34,10.0,West,4.6,-,N/A,,Clear,280,2013-03-16 09:55:00
5:55 AM,-18.6,-24.3,75,30.34,10.0,West,4.6,-,N/A,,Clear,280,2013-03-16 10:55:00
6:39 AM,-18.4,-23.8,76,30.35,10.0,WNW,4.6,-,N/A,,Mostly Cloudy,300,2013-03-16 11:39:00
6:47 AM,-18.4,-23.8,76,30.35,10.0,WNW,5.8,-,N/A,,Mostly Cloudy,300,2013-03-16 11:47:00
6:54 AM,-18.4,-23.8,76,30.35,10.0,West,4.6,-,N/A,,Overcast,280,2013-03-16 11:54:00
6:55 AM,-18.4,-24.2,75,30.35,10.0,West,4.6,-,N/A,,Overcast,280,2013-03-16 11:55:00
7:06 AM,-18.4,-23.8,76,30.35,10.0,West,5.8,-,N/A,,Overcast,280,2013-03-16 12:06:00
7:07 AM,-18.4,-23.8,76,30.35,10.0,West,5.8,-,N/A,,Overcast,280,2013-03-16 12:07:00
7:09 AM,-18.4,-23.8,76,30.35,10.0,West,5.8,-,N/A,,Overcast,280,2013-03-16 12:09:00
7:10 AM,-18.4,-23.8,76,30.35,10.0,West,5.8,-,N/A,,Overcast,280,2013-03-16 12:10:00
7:13 AM,-18.4,-23.8,76,30.35,10.0,West,4.6,-,N/A,,Overcast,280,2013-03-16 12:13:00
7:14 AM,-18.4,-23.8,76,30.35,10.0,West,4.6,-,N/A,,Overcast,280,2013-03-16 12:14:00
7:17 AM,-18.4,-23.8,76,30.35,10.0,WNW,3.5,-,N/A,,Overcast,290,2013-03-16 12:17:00
7:21 AM,-18.4,-23.8,76,30.35,10.0,West,3.5,-,N/A,,Overcast,280,2013-03-16 12:21:00
7:31 AM,-16.6,-22.0,76,30.34,10.0,WNW,3.5,-,N/A,Snow,Light Snow,290,2013-03-16 12:31:00
7:34 AM,-16.6,-22.0,76,30.34,10.0,WNW,3.5,-,N/A,Snow,Light Snow,290,2013-03-16 12:34:00
7:47 AM,-14.8,-20.2,77,30.34,10.0,SW,6.9,-,N/A,Snow,Light Snow,230,2013-03-16 12:47:00
7:55 AM,-14.1,-19.1,78,30.34,9.0,West,6.9,-,0.00,,Overcast,260,2013-03-16 12:55:00
7:59 AM,-13.0,-18.4,77,30.33,9.0,West,6.9,-,N/A,,Overcast,270,2013-03-16 12:59:00
8:15 AM,-11.2,-14.8,84,30.33,10.0,West,4.6,-,N/A,Snow,Light Snow,270,2013-03-16 13:15:00
8:16 AM,-11.2,-14.8,84,30.33,10.0,West,4.6,-,N/A,Snow,Light Snow,270,2013-03-16 13:16:00
8:18 AM,-9.4,-14.8,77,30.33,10.0,West,5.8,-,N/A,Snow,Light Snow,270,2013-03-16 13:18:00
8:55 AM,-4.4,-8.5,82,30.32,10.0,WNW,10.4,-,0.00,Snow,Light Snow,300,2013-03-16 13:55:00
9:01 AM,-4.0,-7.6,85,30.32,10.0,WNW,11.5,-,N/A,Snow,Light Snow,300,2013-03-16 14:01:00
9:09 AM,-2.2,-7.6,78,30.32,9.0,West,10.4,-,N/A,Rain,Light Freezing Rain,280,2013-03-16 14:09:00
9:42 AM,-0.4,-5.8,78,30.32,4.0,WNW,11.5,-,N/A,Rain,Light Freezing Rain,290,2013-03-16 14:42:00
10:07 AM,1.4,-2.2,85,30.33,6.0,WNW,12.7,-,N/A,Snow,Light Snow,300,2013-03-16 15:07:00
10:27 AM,1.4,-2.2,85,30.33,10.0,WNW,15.0,-,N/A,,Overcast,300,2013-03-16 15:27:00
10:34 AM,1.4,-2.2,85,30.33,10.0,NW,13.8,-,N/A,,Overcast,310,2013-03-16 15:34:00
10:53 AM,1.4,-2.2,85,30.33,10.0,NW,12.7,-,N/A,,Overcast,320,2013-03-16 15:53:00
10:55 AM,2.1,-1.7,84,30.33,10.0,NW,13.8,-,0.00,,Overcast,320,2013-03-16 15:55:00
11:03 AM,3.2,-2.2,78,30.34,10.0,NW,12.7,-,N/A,,Overcast,310,2013-03-16 16:03:00
11:12 AM,3.2,-2.2,78,30.34,10.0,NW,12.7,-,N/A,,Freezing Rain,310,2013-03-16 16:12:00
11:17 AM,3.2,-2.2,78,30.35,10.0,NW,12.7,-,N/A,,Freezing Rain,310,2013-03-16 16:17:00
11:26 AM,3.2,-2.2,78,30.35,10.0,NW,15.0,-,N/A,,Freezing Rain,310,2013-03-16 16:26:00
11:55 AM,2.7,-1.1,84,30.35,10.0,NW,13.8,-,0.00,,Freezing Rain,320,2013-03-16 16:55:00
12:17 PM,3.2,-0.4,85,30.36,2.5,NW,12.7,-,N/A,,Clear,320,2013-03-16 17:17:00
12:18 PM,3.2,-0.4,85,30.36,1.5,NW,12.7,-,N/A,,Clear,320,2013-03-16 17:18:00
12:19 PM,3.2,-0.4,85,30.36,1.2,NW,12.7,-,N/A,,Clear,320,2013-03-16 17:19:00
12:27 PM,3.2,-0.4,85,30.36,2.0,NNW,13.8,-,N/A,,Haze,330,2013-03-16 17:27:00
12:28 PM,3.2,-0.4,85,30.36,4.0,NNW,12.7,-,N/A,,Haze,330,2013-03-16 17:28:00
12:55 PM,3.9,-1.1,80,30.37,10.0,NNW,11.5,-,0.00,,Clear,340,2013-03-16 17:55:00
1:55 PM,5.7,-1.3,73,30.39,10.0,NNW,9.2,-,N/A,,Clear,340,2013-03-16 18:55:00
2:55 PM,6.8,-0.9,71,30.37,10.0,North,11.5,-,N/A,,Overcast,10,2013-03-16 19:55:00
3:55 PM,6.8,-1.1,70,30.35,10.0,NNE,8.1,-,N/A,,Partly Cloudy,20,2013-03-16 20:55:00
4:55 PM,7.0,-1.7,68,30.35,10.0,NNE,6.9,-,N/A,,Scattered Clouds,30,2013-03-16 21:55:00
5:55 PM,6.4,-1.7,69,30.35,10.0,NE,5.8,-,N/A,,Clear,50,2013-03-16 22:55:00
10:55 PM,3.9,-2.6,74,30.30,10.0,ESE,10.4,-,N/A,,Overcast,120,2013-03-17 03:55:00
11:55 PM,3.9,-1.7,78,30.27,10.0,SE,10.4,-,N/A,,Overcast,130,2013-03-17 04:55:00